createdAt,value
2019-01-02T00:00:19.736Z,0
2019-01-02T00:01:18.480Z,0
2019-01-02T00:02:18.949Z,0
2019-01-02T00:03:19.728Z,0
2019-01-02T00:04:18.931Z,0
2019-01-02T00:05:18.909Z,0
2019-01-02T00:06:19.005Z,0
2019-01-02T00:07:18.676Z,0
2019-01-02T00:08:19.340Z,0
2019-01-02T00:09:18.429Z,0
2019-01-02T00:10:18.877Z,0
2019-01-02T00:11:19.368Z,0
2019-01-02T00:12:18.119Z,0
2019-01-02T00:13:18.383Z,0
2019-01-02T00:14:19.044Z,0
2019-01-02T00:15:18.332Z,0
2019-01-02T00:16:19.097Z,0
2019-01-02T00:17:18.818Z,0
2019-01-02T00:18:18.574Z,0
2019-01-02T00:19:19.575Z,0
2019-01-02T00:20:18.349Z,0
2019-01-02T00:21:18.567Z,0
2019-01-02T00:22:18.935Z,0
2019-01-02T00:23:18.762Z,0
2019-01-02T00:24:19.270Z,0
2019-01-02T00:25:18.484Z,0
2019-01-02T00:26:18.778Z,0
2019-01-02T00:27:19.646Z,0
2019-01-02T00:28:18.722Z,0
2019-01-02T00:29:18.716Z,0
2019-01-02T00:30:19.654Z,0
2019-01-02T00:31:18.690Z,0
2019-01-02T00:32:19.672Z,0
2019-01-02T00:33:23.779Z,0
2019-01-02T00:34:18.669Z,0
2019-01-02T00:35:19.721Z,0
2019-01-02T00:36:18.629Z,0
2019-01-02T00:37:18.744Z,0
2019-01-02T00:38:18.629Z,0
2019-01-02T00:39:18.473Z,0
2019-01-02T00:40:19.617Z,0
2019-01-02T00:41:18.386Z,0
2019-01-02T00:42:18.073Z,0
2019-01-02T00:43:18.928Z,0
2019-01-02T00:44:19.567Z,0
2019-01-02T00:45:25.240Z,0
2019-01-02T00:46:18.292Z,0
2019-01-02T00:47:18.294Z,0
2019-01-02T00:48:19.675Z,0
2019-01-02T00:49:18.568Z,0
2019-01-02T00:50:18.532Z,0
2019-01-02T00:51:18.240Z,0
2019-01-02T00:52:17.987Z,0
2019-01-02T00:53:19.698Z,0
2019-01-02T00:54:18.238Z,0
2019-01-02T00:55:18.847Z,0
2019-01-02T00:56:18.432Z,0
2019-01-02T00:57:17.715Z,0
2019-01-02T00:58:19.398Z,0
2019-01-02T00:59:18.420Z,0
2019-01-02T01:00:19.175Z,0
2019-01-02T01:01:18.142Z,0
2019-01-02T01:02:18.378Z,0
2019-01-02T01:03:19.415Z,0
2019-01-02T01:04:18.174Z,0
2019-01-02T01:05:19.671Z,0
2019-01-02T01:06:18.126Z,0
2019-01-02T01:07:18.081Z,0
2019-01-02T01:08:19.511Z,0
2019-01-02T01:09:17.865Z,0
2019-01-02T01:10:19.527Z,0
2019-01-02T01:11:18.064Z,0
2019-01-02T01:12:18.314Z,0
2019-01-02T01:13:18.808Z,0
2019-01-02T01:14:17.774Z,0
2019-01-02T01:15:18.887Z,0
2019-01-02T01:16:18.247Z,0
2019-01-02T01:17:17.988Z,0
2019-01-02T01:18:19.161Z,0
2019-01-02T01:19:17.784Z,0
2019-01-02T01:20:18.302Z,0
2019-01-02T01:21:17.721Z,0
2019-01-02T01:22:17.960Z,0
2019-01-02T01:23:19.432Z,0
2019-01-02T01:24:17.680Z,0
2019-01-02T01:25:17.691Z,0
2019-01-02T01:26:19.234Z,0
2019-01-02T01:27:17.904Z,0
2019-01-02T01:28:17.871Z,0
2019-01-02T01:29:19.553Z,0
2019-01-02T01:30:17.871Z,0
2019-01-02T01:31:17.879Z,0
2019-01-02T01:32:19.222Z,0
2019-01-02T01:33:18.159Z,0
2019-01-02T01:34:17.898Z,0
2019-01-02T01:35:19.279Z,0
2019-01-02T01:36:17.830Z,0
2019-01-02T01:37:17.546Z,0
2019-01-02T01:38:18.550Z,0
2019-01-02T01:39:17.542Z,0
2019-01-02T01:40:17.549Z,0
2019-01-02T01:41:19.173Z,0
2019-01-02T01:42:17.756Z,0
2019-01-02T01:43:18.360Z,0
2019-01-02T01:44:17.506Z,0
2019-01-02T01:45:17.491Z,0
2019-01-02T01:46:18.249Z,0
2019-01-02T01:47:17.478Z,0
2019-01-02T01:48:17.451Z,0
2019-01-02T01:49:19.222Z,0
2019-01-02T01:50:17.925Z,0
2019-01-02T01:51:17.926Z,0
2019-01-02T01:52:18.627Z,0
2019-01-02T01:53:16.918Z,0
2019-01-02T01:54:17.395Z,0
2019-01-02T01:55:19.110Z,0
2019-01-02T01:56:17.649Z,0
2019-01-02T01:57:17.601Z,0
2019-01-02T01:58:18.269Z,0
2019-01-02T01:59:17.591Z,0
2019-01-02T02:00:17.783Z,0
2019-01-02T02:01:17.893Z,0
2019-01-02T02:02:17.826Z,0
2019-01-02T02:03:17.914Z,0
2019-01-02T02:04:18.793Z,0
2019-01-02T02:05:17.530Z,0
2019-01-02T02:06:18.578Z,0
2019-01-02T02:07:17.772Z,0
2019-01-02T02:08:17.267Z,0
2019-01-02T02:09:18.876Z,0
2019-01-02T02:10:16.988Z,0
2019-01-02T02:11:17.221Z,0
2019-01-02T02:12:18.688Z,0
2019-01-02T02:13:16.952Z,0
2019-01-02T02:14:17.447Z,0
2019-01-02T02:15:18.406Z,0
2019-01-02T02:16:17.200Z,0
2019-01-02T02:17:17.178Z,0
2019-01-02T02:18:18.184Z,0
2019-01-02T02:19:17.653Z,0
2019-01-02T02:20:17.513Z,0
2019-01-02T02:21:17.136Z,0
2019-01-02T02:22:17.357Z,0
2019-01-02T02:23:18.423Z,0
2019-01-02T02:24:17.564Z,0
2019-01-02T02:25:17.353Z,0
2019-01-02T02:26:18.366Z,0
2019-01-02T02:27:16.832Z,0
2019-01-02T02:28:17.332Z,0
2019-01-02T02:29:18.520Z,0
2019-01-02T02:30:17.297Z,0
2019-01-02T02:31:18.363Z,0
2019-01-02T02:32:17.516Z,0
2019-01-02T02:33:18.526Z,0
2019-01-02T02:34:18.407Z,0
2019-01-02T02:35:18.348Z,0
2019-01-02T02:36:18.385Z,0
2019-01-02T02:37:17.209Z,0
2019-01-02T02:38:18.428Z,0
2019-01-02T02:39:18.165Z,0
2019-01-02T02:40:16.950Z,0
2019-01-02T02:41:17.941Z,0
2019-01-02T02:42:17.919Z,0
2019-01-02T02:43:17.397Z,0
2019-01-02T02:44:18.588Z,0
2019-01-02T02:45:18.488Z,0
2019-01-02T02:46:17.747Z,0
2019-01-02T02:47:16.865Z,0
2019-01-02T02:48:18.533Z,0
2019-01-02T02:49:17.817Z,0
2019-01-02T02:50:17.117Z,0
2019-01-02T02:51:18.401Z,0
2019-01-02T02:52:17.080Z,0
2019-01-02T02:53:18.356Z,0
2019-01-02T02:54:18.541Z,0
2019-01-02T02:55:17.306Z,0
2019-01-02T02:56:18.463Z,0
2019-01-02T02:57:16.790Z,0
2019-01-02T02:58:17.867Z,0
2019-01-02T02:59:18.459Z,0
2019-01-02T03:00:17.217Z,0
2019-01-02T03:01:18.074Z,0
2019-01-02T03:02:18.579Z,0
2019-01-02T03:03:16.448Z,0
2019-01-02T03:04:17.701Z,0
2019-01-02T03:05:19.870Z,0
2019-01-02T03:06:16.483Z,0
2019-01-02T03:07:18.222Z,0
2019-01-02T03:08:17.690Z,0
2019-01-02T03:09:16.915Z,0
2019-01-02T03:10:17.910Z,0
2019-01-02T03:11:17.944Z,0
2019-01-02T03:12:16.903Z,0
2019-01-02T03:13:17.987Z,0
2019-01-02T03:14:18.180Z,0
2019-01-02T03:15:16.622Z,0
2019-01-02T03:16:17.704Z,0
2019-01-02T03:17:17.897Z,0
2019-01-02T03:18:17.079Z,0
2019-01-02T03:19:17.668Z,0
2019-01-02T03:20:17.951Z,0
2019-01-02T03:21:16.786Z,0
2019-01-02T03:22:17.756Z,0
2019-01-02T03:23:17.908Z,0
2019-01-02T03:24:16.314Z,0
2019-01-02T03:25:17.959Z,0
2019-01-02T03:26:17.116Z,0
2019-01-02T03:27:16.744Z,0
2019-01-02T03:28:18.355Z,0
2019-01-02T03:29:18.034Z,0
2019-01-02T03:30:18.153Z,0
2019-01-02T03:31:17.974Z,0
2019-01-02T03:32:18.089Z,0
2019-01-02T03:33:16.404Z,0
2019-01-02T03:34:16.668Z,0
2019-01-02T03:35:16.881Z,0
2019-01-02T03:36:16.928Z,0
2019-01-02T03:37:16.856Z,0
2019-01-02T03:38:16.628Z,0
2019-01-02T03:39:16.849Z,0
2019-01-02T03:40:16.578Z,0
2019-01-02T03:41:16.618Z,0
2019-01-02T03:42:16.338Z,0
2019-01-02T03:43:16.308Z,0
2019-01-02T03:44:16.558Z,0
2019-01-02T03:45:16.544Z,0
2019-01-02T03:46:16.539Z,0
2019-01-02T03:47:16.537Z,0
2019-01-02T03:48:16.515Z,0
2019-01-02T03:49:16.743Z,0
2019-01-02T03:50:16.731Z,0
2019-01-02T03:51:16.764Z,0
2019-01-02T03:52:16.567Z,0
2019-01-02T03:53:16.196Z,0
2019-01-02T03:54:15.948Z,0
2019-01-02T03:55:16.492Z,0
2019-01-02T03:56:16.673Z,0
2019-01-02T03:57:16.407Z,0
2019-01-02T03:58:16.405Z,0
2019-01-02T03:59:15.886Z,0
2019-01-02T04:00:16.405Z,0
2019-01-02T04:01:16.133Z,0
2019-01-02T04:02:16.612Z,0
2019-01-02T04:03:16.634Z,0
2019-01-02T04:04:16.605Z,0
2019-01-02T04:05:16.098Z,0
2019-01-02T04:06:19.224Z,0
2019-01-02T04:07:16.316Z,0
2019-01-02T04:08:16.311Z,0
2019-01-02T04:09:16.037Z,0
2019-01-02T04:10:16.022Z,0
2019-01-02T04:11:16.548Z,0
2019-01-02T04:12:16.411Z,0
2019-01-02T04:13:16.257Z,0
2019-01-02T04:14:16.443Z,0
2019-01-02T04:15:16.229Z,0
2019-01-02T04:16:16.209Z,0
2019-01-02T04:17:16.255Z,0
2019-01-02T04:18:16.458Z,0
2019-01-02T04:19:16.432Z,0
2019-01-02T04:20:15.948Z,0
2019-01-02T04:21:16.412Z,0
2019-01-02T04:22:16.437Z,0
2019-01-02T04:23:16.412Z,0
2019-01-02T04:24:15.870Z,0
2019-01-02T04:25:16.363Z,0
2019-01-02T04:26:17.181Z,0
2019-01-02T04:27:15.866Z,0
2019-01-02T04:28:15.594Z,0
2019-01-02T04:29:16.086Z,0
2019-01-02T04:30:15.818Z,0
2019-01-02T04:31:16.319Z,0
2019-01-02T04:32:17.560Z,0
2019-01-02T04:33:16.036Z,0
2019-01-02T04:34:15.769Z,0
2019-01-02T04:35:15.816Z,0
2019-01-02T04:36:16.038Z,0
2019-01-02T04:37:15.547Z,0
2019-01-02T04:38:15.755Z,0
2019-01-02T04:39:15.978Z,0
2019-01-02T04:40:17.643Z,0
2019-01-02T04:41:15.942Z,0
2019-01-02T04:42:15.683Z,0
2019-01-02T04:43:16.211Z,0
2019-01-02T04:44:15.911Z,0
2019-01-02T04:45:15.654Z,0
2019-01-02T04:46:15.640Z,0
2019-01-02T04:47:16.150Z,0
2019-01-02T04:48:15.882Z,0
2019-01-02T04:49:16.123Z,0
2019-01-02T04:50:15.612Z,0
2019-01-02T04:51:15.876Z,0
2019-01-02T04:52:16.441Z,0
2019-01-02T04:53:15.352Z,0
2019-01-02T04:54:15.558Z,0
2019-01-02T04:55:15.798Z,0
2019-01-02T04:56:15.539Z,0
2019-01-02T04:57:16.047Z,0
2019-01-02T04:58:16.014Z,0
2019-01-02T04:59:15.790Z,0
2019-01-02T05:00:15.509Z,0
2019-01-02T05:01:15.744Z,0
2019-01-02T05:02:15.487Z,0
2019-01-02T05:03:15.994Z,0
2019-01-02T05:04:15.717Z,0
2019-01-02T05:05:15.457Z,0
2019-01-02T05:06:15.457Z,0
2019-01-02T05:07:16.491Z,0
2019-01-02T05:08:15.935Z,0
2019-01-02T05:09:15.421Z,0
2019-01-02T05:10:15.422Z,0
2019-01-02T05:11:15.624Z,0
2019-01-02T05:12:15.635Z,0
2019-01-02T05:13:15.894Z,0
2019-01-02T05:14:15.363Z,0
2019-01-02T05:15:15.881Z,0
2019-01-02T05:16:15.830Z,0
2019-01-02T05:17:15.819Z,0
2019-01-02T05:18:15.310Z,0
2019-01-02T05:19:15.808Z,0
2019-01-02T05:20:15.337Z,0
2019-01-02T05:21:15.046Z,0
2019-01-02T05:22:15.554Z,0
2019-01-02T05:23:15.772Z,0
2019-01-02T05:24:15.261Z,0
2019-01-02T05:25:15.011Z,0
2019-01-02T05:26:15.241Z,0
2019-01-02T05:27:15.261Z,0
2019-01-02T05:28:15.455Z,0
2019-01-02T05:29:15.215Z,0
2019-01-02T05:30:16.249Z,0
2019-01-02T05:31:15.691Z,0
2019-01-02T05:32:15.672Z,0
2019-01-02T05:33:15.162Z,0
2019-01-02T05:34:15.402Z,0
2019-01-02T05:35:15.151Z,0
2019-01-02T05:36:15.636Z,0
2019-01-02T05:37:14.949Z,0
2019-01-02T05:38:15.627Z,0
2019-01-02T05:39:14.873Z,0
2019-01-02T05:40:14.590Z,0
2019-01-02T05:41:15.066Z,0
2019-01-02T05:42:15.125Z,0
2019-01-02T05:43:15.581Z,0
2019-01-02T05:44:14.805Z,0
2019-01-02T05:45:15.300Z,0
2019-01-02T05:46:15.269Z,0
2019-01-02T05:47:15.266Z,0
2019-01-02T05:48:15.260Z,0
2019-01-02T05:49:15.009Z,0
2019-01-02T05:50:14.733Z,0
2019-01-02T05:51:15.525Z,0
2019-01-02T05:52:15.228Z,0
2019-01-02T05:53:15.200Z,0
2019-01-02T05:54:15.471Z,0
2019-01-02T05:55:15.201Z,0
2019-01-02T05:56:15.190Z,0
2019-01-02T05:57:14.681Z,0
2019-01-02T05:58:15.145Z,0
2019-01-02T05:59:15.141Z,0
2019-01-02T06:00:15.162Z,0
2019-01-02T06:01:15.164Z,0
2019-01-02T06:02:14.612Z,0
2019-01-02T06:03:15.129Z,0
2019-01-02T06:04:14.866Z,0
2019-01-02T06:05:15.107Z,0
2019-01-02T06:06:15.071Z,0
2019-01-02T06:07:14.872Z,0
2019-01-02T06:08:14.557Z,0
2019-01-02T06:09:14.808Z,0
2019-01-02T06:10:15.023Z,0
2019-01-02T06:11:15.016Z,0
2019-01-02T06:12:15.251Z,0
2019-01-02T06:13:15.272Z,0
2019-01-02T06:14:14.982Z,0
2019-01-02T06:15:15.270Z,0
2019-01-02T06:16:14.475Z,0
2019-01-02T06:17:14.960Z,0
2019-01-02T06:18:14.457Z,0
2019-01-02T06:19:15.207Z,0
2019-01-02T06:20:14.967Z,0
2019-01-02T06:21:14.670Z,0
2019-01-02T06:22:15.195Z,0
2019-01-02T06:23:14.646Z,0
2019-01-02T06:24:14.879Z,0
2019-01-02T06:25:14.645Z,0
2019-01-02T06:26:14.630Z,0
2019-01-02T06:27:14.860Z,0
2019-01-02T06:28:15.100Z,0
2019-01-02T06:29:14.840Z,0
2019-01-02T06:30:15.776Z,0
2019-01-02T06:31:15.069Z,0
2019-01-02T06:32:14.819Z,0
2019-01-02T06:33:14.787Z,0
2019-01-02T06:34:14.816Z,0
2019-01-02T06:35:14.770Z,0
2019-01-02T06:36:15.018Z,0
2019-01-02T06:37:14.509Z,0
2019-01-02T06:38:14.762Z,0
2019-01-02T06:39:14.980Z,0
2019-01-02T06:40:14.742Z,0
2019-01-02T06:41:14.472Z,0
2019-01-02T06:42:14.703Z,0
2019-01-02T06:43:14.953Z,0
2019-01-02T06:44:14.936Z,0
2019-01-02T06:45:14.915Z,0
2019-01-02T06:46:14.410Z,0
2019-01-02T06:47:14.658Z,0
2019-01-02T06:48:14.888Z,0
2019-01-02T06:49:14.889Z,0
2019-01-02T06:50:14.390Z,0
2019-01-02T06:51:14.642Z,0
2019-01-02T06:52:17.811Z,0
2019-01-02T06:53:14.839Z,0
2019-01-02T06:54:14.581Z,0
2019-01-02T06:55:14.559Z,0
2019-01-02T06:56:14.585Z,0
2019-01-02T06:57:14.558Z,0
2019-01-02T06:58:14.802Z,0
2019-01-02T06:59:14.538Z,0
2019-01-02T07:00:14.526Z,0
2019-01-02T07:01:14.269Z,0
2019-01-02T07:02:14.504Z,0
2019-01-02T07:03:14.264Z,0
2019-01-02T07:04:14.471Z,0
2019-01-02T07:05:14.258Z,0
2019-01-02T07:06:14.716Z,0
2019-01-02T07:07:14.215Z,0
2019-01-02T07:08:14.191Z,0
2019-01-02T07:09:14.424Z,0
2019-01-02T07:10:14.673Z,0
2019-01-02T07:11:14.676Z,0
2019-01-02T07:12:14.173Z,0
2019-01-02T07:13:14.615Z,0
2019-01-02T07:14:14.670Z,0
2019-01-02T07:15:14.608Z,0
2019-01-02T07:16:14.370Z,0
2019-01-02T07:17:14.345Z,0
2019-01-02T07:18:14.130Z,0
2019-01-02T07:19:14.360Z,0
2019-01-02T07:20:14.575Z,0
2019-01-02T07:21:14.706Z,0
2019-01-02T07:22:14.559Z,0
2019-01-02T07:23:14.582Z,5
2019-01-02T07:24:14.512Z,5
2019-01-02T07:25:14.536Z,5
2019-01-02T07:26:14.517Z,5
2019-01-02T07:27:14.297Z,5
2019-01-02T07:28:14.476Z,5
2019-01-02T07:29:14.465Z,5
2019-01-02T07:30:14.461Z,5
2019-01-02T07:31:14.203Z,5
2019-01-02T07:32:14.210Z,5
2019-01-02T07:33:14.445Z,5
2019-01-02T07:34:13.419Z,10
2019-01-02T07:35:14.161Z,10
2019-01-02T07:36:14.183Z,5
2019-01-02T07:37:14.400Z,5
2019-01-02T07:38:14.365Z,5
2019-01-02T07:39:14.162Z,5
2019-01-02T07:40:14.661Z,5
2019-01-02T07:41:14.094Z,5
2019-01-02T07:42:14.097Z,5
2019-01-02T07:43:14.314Z,5
2019-01-02T07:44:14.100Z,5
2019-01-02T07:45:14.074Z,5
2019-01-02T07:46:14.331Z,5
2019-01-02T07:47:14.314Z,5
2019-01-02T07:48:14.294Z,5
2019-01-02T07:49:13.761Z,10
2019-01-02T07:50:14.284Z,10
2019-01-02T07:51:14.251Z,10
2019-01-02T07:52:14.238Z,10
2019-01-02T07:53:15.012Z,10
2019-01-02T07:54:13.954Z,10
2019-01-02T07:55:13.697Z,10
2019-01-02T07:56:14.195Z,10
2019-01-02T07:57:13.977Z,10
2019-01-02T07:58:14.757Z,15
2019-01-02T07:59:14.167Z,15
2019-01-02T08:00:13.651Z,15
2019-01-02T08:01:14.161Z,15
2019-01-02T08:02:13.626Z,20
2019-01-02T08:03:14.131Z,20
2019-01-02T08:04:14.127Z,20
2019-01-02T08:05:13.880Z,20
2019-01-02T08:06:13.599Z,20
2019-01-02T08:07:13.601Z,25
2019-01-02T08:08:13.864Z,25
2019-01-02T08:09:13.317Z,25
2019-01-02T08:10:13.552Z,30
2019-01-02T08:11:13.798Z,30
2019-01-02T08:12:13.795Z,30
2019-01-02T08:13:13.513Z,25
2019-01-02T08:14:13.257Z,25
2019-01-02T08:15:13.253Z,25
2019-01-02T08:16:14.008Z,25
2019-01-02T08:17:13.745Z,20
2019-01-02T08:18:13.471Z,20
2019-01-02T08:19:13.988Z,20
2019-01-02T08:20:13.456Z,20
2019-01-02T08:21:13.677Z,25
2019-01-02T08:22:13.940Z,25
2019-01-02T08:23:13.941Z,30
2019-01-02T08:24:13.682Z,30
2019-01-02T08:25:13.959Z,35
2019-01-02T08:26:15.270Z,35
2019-01-02T08:27:13.910Z,35
2019-01-02T08:28:13.393Z,40
2019-01-02T08:29:13.137Z,40
2019-01-02T08:30:13.608Z,35
2019-01-02T08:31:13.590Z,35
2019-01-02T08:32:13.092Z,35
2019-01-02T08:33:13.831Z,40
2019-01-02T08:34:13.299Z,40
2019-01-02T08:35:13.558Z,45
2019-01-02T08:36:12.802Z,45
2019-01-02T08:37:13.778Z,45
2019-01-02T08:38:13.539Z,45
2019-01-02T08:39:13.511Z,50
2019-01-02T08:40:13.007Z,50
2019-01-02T08:41:13.498Z,45
2019-01-02T08:42:13.737Z,45
2019-01-02T08:43:13.248Z,45
2019-01-02T08:44:13.232Z,45
2019-01-02T08:45:13.457Z,50
2019-01-02T08:46:13.685Z,50
2019-01-02T08:47:12.975Z,50
2019-01-02T08:48:13.673Z,55
2019-01-02T08:49:13.681Z,60
2019-01-02T08:50:13.411Z,65
2019-01-02T08:51:13.150Z,70
2019-01-02T08:52:13.402Z,70
2019-01-02T08:53:13.114Z,70
2019-01-02T08:54:14.316Z,65
2019-01-02T08:55:12.866Z,65
2019-01-02T08:56:12.832Z,65
2019-01-02T08:57:13.587Z,60
2019-01-02T08:58:13.082Z,60
2019-01-02T08:59:13.568Z,60
2019-01-02T09:00:13.052Z,60
2019-01-02T09:01:12.793Z,55
2019-01-02T09:02:13.041Z,55
2019-01-02T09:03:13.512Z,55
2019-01-02T09:04:13.276Z,60
2019-01-02T09:05:13.271Z,70
2019-01-02T09:06:13.501Z,75
2019-01-02T09:07:13.466Z,75
2019-01-02T09:08:12.979Z,70
2019-01-02T09:09:15.422Z,75
2019-01-02T09:10:13.462Z,75
2019-01-02T09:11:13.429Z,75
2019-01-02T09:12:13.449Z,80
2019-01-02T09:13:13.175Z,70
2019-01-02T09:14:13.151Z,70
2019-01-02T09:15:13.150Z,70
2019-01-02T09:16:12.655Z,70
2019-01-02T09:17:12.679Z,65
2019-01-02T09:18:13.377Z,55
2019-01-02T09:19:12.618Z,55
2019-01-02T09:20:13.107Z,50
2019-01-02T09:21:13.390Z,50
2019-01-02T09:22:12.848Z,50
2019-01-02T09:23:12.845Z,50
2019-01-02T09:24:15.296Z,50
2019-01-02T09:25:13.071Z,50
2019-01-02T09:26:13.315Z,50
2019-01-02T09:27:13.030Z,50
2019-01-02T09:28:12.805Z,50
2019-01-02T09:29:13.061Z,50
2019-01-02T09:30:12.547Z,50
2019-01-02T09:31:13.247Z,50
2019-01-02T09:32:12.994Z,50
2019-01-02T09:33:12.995Z,50
2019-01-02T09:34:12.740Z,45
2019-01-02T09:35:12.752Z,45
2019-01-02T09:36:12.745Z,40
2019-01-02T09:37:12.752Z,40
2019-01-02T09:38:13.182Z,40
2019-01-02T09:39:13.240Z,45
2019-01-02T09:40:13.231Z,55
2019-01-02T09:41:13.231Z,45
2019-01-02T09:42:13.173Z,45
2019-01-02T09:43:12.904Z,50
2019-01-02T09:44:13.138Z,50
2019-01-02T09:45:12.877Z,60
2019-01-02T09:46:12.868Z,70
2019-01-02T09:47:12.634Z,75
2019-01-02T09:48:13.109Z,70
2019-01-02T09:49:12.867Z,70
2019-01-02T09:50:13.513Z,65
2019-01-02T09:51:12.825Z,60
2019-01-02T09:52:13.062Z,55
2019-01-02T09:53:12.876Z,50
2019-01-02T09:54:13.029Z,50
2019-01-02T09:55:13.981Z,55
2019-01-02T09:56:12.567Z,60
2019-01-02T09:57:12.755Z,60
2019-01-02T09:58:12.761Z,65
2019-01-02T09:59:12.993Z,70
2019-01-02T10:00:12.510Z,70
2019-01-02T10:01:12.970Z,70
2019-01-02T10:02:12.962Z,70
2019-01-02T10:03:12.468Z,70
2019-01-02T10:04:14.428Z,70
2019-01-02T10:05:12.492Z,75
2019-01-02T10:06:12.709Z,75
2019-01-02T10:07:12.195Z,75
2019-01-02T10:08:12.447Z,70
2019-01-02T10:09:12.915Z,70
2019-01-02T10:10:12.717Z,75
2019-01-02T10:11:12.888Z,85
2019-01-02T10:12:12.420Z,95
2019-01-02T10:13:12.886Z,100
2019-01-02T10:14:12.634Z,95
2019-01-02T10:15:13.511Z,95
2019-01-02T10:16:12.635Z,95
2019-01-02T10:17:12.579Z,100
2019-01-02T10:18:12.571Z,100
2019-01-02T10:19:12.581Z,100
2019-01-02T10:20:12.080Z,100
2019-01-02T10:21:12.789Z,100
2019-01-02T10:22:12.568Z,100
2019-01-02T10:23:12.354Z,100
2019-01-02T10:24:12.382Z,100
2019-01-02T10:25:15.696Z,100
2019-01-02T10:26:12.776Z,95
2019-01-02T10:27:12.780Z,90
2019-01-02T10:28:12.488Z,85
2019-01-02T10:29:12.725Z,80
2019-01-02T10:30:12.217Z,75
2019-01-02T10:31:12.711Z,70
2019-01-02T10:32:12.445Z,85
2019-01-02T10:33:12.424Z,105
2019-01-02T10:34:12.186Z,120
2019-01-02T10:35:12.191Z,130
2019-01-02T10:36:12.683Z,135
2019-01-02T10:37:12.425Z,135
2019-01-02T10:38:11.901Z,135
2019-01-02T10:39:11.882Z,145
2019-01-02T10:40:12.458Z,155
2019-01-02T10:41:12.127Z,185
2019-01-02T10:42:13.044Z,195
2019-01-02T10:43:12.096Z,195
2019-01-02T10:44:12.318Z,180
2019-01-02T10:45:11.831Z,155
2019-01-02T10:46:12.324Z,130
2019-01-02T10:47:12.306Z,115
2019-01-02T10:48:12.542Z,95
2019-01-02T10:49:12.298Z,75
2019-01-02T10:50:12.275Z,60
2019-01-02T10:51:12.290Z,45
2019-01-02T10:52:12.266Z,45
2019-01-02T10:53:12.507Z,45
2019-01-02T10:54:12.313Z,50
2019-01-02T10:55:14.625Z,55
2019-01-02T10:56:12.249Z,60
2019-01-02T10:57:12.519Z,70
2019-01-02T10:58:11.957Z,75
2019-01-02T10:59:12.208Z,75
2019-01-02T11:00:12.217Z,80
2019-01-02T11:01:11.913Z,85
2019-01-02T11:02:12.204Z,85
2019-01-02T11:03:12.406Z,80
2019-01-02T11:04:12.219Z,80
2019-01-02T11:05:12.166Z,70
2019-01-02T11:06:11.926Z,70
2019-01-02T11:07:12.136Z,70
2019-01-02T11:08:15.986Z,75
2019-01-02T11:09:12.137Z,75
2019-01-02T11:10:12.151Z,80
2019-01-02T11:11:12.098Z,80
2019-01-02T11:12:12.340Z,80
2019-01-02T11:13:12.319Z,80
2019-01-02T11:14:12.156Z,80
2019-01-02T11:15:11.808Z,85
2019-01-02T11:16:12.060Z,90
2019-01-02T11:17:12.068Z,90
2019-01-02T11:18:12.111Z,95
2019-01-02T11:19:11.533Z,100
2019-01-02T11:20:12.035Z,110
2019-01-02T11:21:12.800Z,115
2019-01-02T11:22:12.253Z,125
2019-01-02T11:23:12.266Z,130
2019-01-02T11:24:11.736Z,125
2019-01-02T11:25:13.196Z,125
2019-01-02T11:26:12.219Z,125
2019-01-02T11:27:11.974Z,125
2019-01-02T11:28:11.940Z,130
2019-01-02T11:29:11.939Z,130
2019-01-02T11:30:12.163Z,140
2019-01-02T11:31:11.940Z,140
2019-01-02T11:32:11.905Z,140
2019-01-02T11:33:11.423Z,145
2019-01-02T11:34:11.404Z,150
2019-01-02T11:35:13.225Z,155
2019-01-02T11:36:12.129Z,175
2019-01-02T11:37:12.113Z,180
2019-01-02T11:38:11.862Z,170
2019-01-02T11:39:11.836Z,170
2019-01-02T11:40:12.073Z,165
2019-01-02T11:41:11.554Z,175
2019-01-02T11:42:11.814Z,155
2019-01-02T11:43:11.568Z,145
2019-01-02T11:44:11.813Z,145
2019-01-02T11:45:11.573Z,140
2019-01-02T11:46:11.527Z,130
2019-01-02T11:47:11.792Z,130
2019-01-02T11:48:11.768Z,135
2019-01-02T11:49:11.511Z,120
2019-01-02T11:50:12.027Z,125
2019-01-02T11:51:12.029Z,125
2019-01-02T11:52:11.494Z,130
2019-01-02T11:53:11.972Z,125
2019-01-02T11:54:11.944Z,135
2019-01-02T11:55:11.942Z,140
2019-01-02T11:56:12.693Z,165
2019-01-02T11:57:11.965Z,160
2019-01-02T11:58:11.650Z,160
2019-01-02T11:59:11.426Z,160
2019-01-02T12:00:11.696Z,160
2019-01-02T12:01:11.639Z,160
2019-01-02T12:02:11.632Z,160
2019-01-02T12:03:11.644Z,160
2019-01-02T12:04:11.356Z,160
2019-01-02T12:05:11.850Z,160
2019-01-02T12:06:11.869Z,160
2019-01-02T12:07:11.838Z,160
2019-01-02T12:08:11.102Z,160
2019-01-02T12:09:11.641Z,160
2019-01-02T12:10:11.568Z,160
2019-01-02T12:11:11.279Z,160
2019-01-02T12:12:11.793Z,155
2019-01-02T12:13:11.898Z,155
2019-01-02T12:14:11.769Z,155
2019-01-02T12:15:11.749Z,155
2019-01-02T12:16:11.007Z,155
2019-01-02T12:17:11.553Z,155
2019-01-02T12:18:11.502Z,155
2019-01-02T12:19:11.501Z,160
2019-01-02T12:20:11.703Z,160
2019-01-02T12:21:11.508Z,170
2019-01-02T12:22:11.706Z,175
2019-01-02T12:23:11.454Z,190
2019-01-02T12:24:11.240Z,185
2019-01-02T12:25:11.686Z,170
2019-01-02T12:26:15.985Z,165
2019-01-02T12:27:11.155Z,160
2019-01-02T12:28:11.393Z,165
2019-01-02T12:29:11.385Z,155
2019-01-02T12:30:10.895Z,155
2019-01-02T12:31:11.622Z,145
2019-01-02T12:32:11.153Z,135
2019-01-02T12:33:11.634Z,135
2019-01-02T12:34:11.130Z,135
2019-01-02T12:35:11.597Z,140
2019-01-02T12:36:10.843Z,140
2019-01-02T12:37:11.319Z,140
2019-01-02T12:38:11.562Z,145
2019-01-02T12:39:11.304Z,150
2019-01-02T12:40:11.332Z,170
2019-01-02T12:41:11.105Z,175
2019-01-02T12:42:10.846Z,160
2019-01-02T12:43:11.030Z,165
2019-01-02T12:44:11.291Z,150
2019-01-02T12:45:11.554Z,155
2019-01-02T12:46:11.502Z,170
2019-01-02T12:47:10.989Z,155
2019-01-02T12:48:11.481Z,145
2019-01-02T12:49:11.243Z,140
2019-01-02T12:50:11.229Z,120
2019-01-02T12:51:10.973Z,115
2019-01-02T12:52:10.961Z,120
2019-01-02T12:53:11.428Z,115
2019-01-02T12:54:11.421Z,100
2019-01-02T12:55:11.433Z,85
2019-01-02T12:56:11.453Z,85
2019-01-02T12:57:12.015Z,85
2019-01-02T12:58:11.398Z,80
2019-01-02T12:59:11.194Z,80
2019-01-02T13:00:11.239Z,75
2019-01-02T13:01:11.366Z,75
2019-01-02T13:02:11.147Z,75
2019-01-02T13:03:10.863Z,75
2019-01-02T13:04:10.858Z,70
2019-01-02T13:05:11.372Z,65
2019-01-02T13:06:11.341Z,60
2019-01-02T13:07:10.810Z,60
2019-01-02T13:08:10.597Z,55
2019-01-02T13:09:11.043Z,45
2019-01-02T13:10:11.050Z,40
2019-01-02T13:11:10.812Z,35
2019-01-02T13:12:11.137Z,30
2019-01-02T13:13:11.035Z,25
2019-01-02T13:14:11.271Z,25
2019-01-02T13:15:11.238Z,35
2019-01-02T13:16:11.002Z,45
2019-01-02T13:17:11.220Z,50
2019-01-02T13:18:11.241Z,60
2019-01-02T13:19:11.226Z,55
2019-01-02T13:20:10.762Z,50
2019-01-02T13:21:11.174Z,55
2019-01-02T13:22:11.219Z,60
2019-01-02T13:23:10.910Z,70
2019-01-02T13:24:10.931Z,75
2019-01-02T13:25:11.162Z,80
2019-01-02T13:26:11.134Z,85
2019-01-02T13:27:14.095Z,85
2019-01-02T13:28:11.125Z,90
2019-01-02T13:29:11.795Z,90
2019-01-02T13:30:10.859Z,90
2019-01-02T13:31:10.846Z,90
2019-01-02T13:32:10.616Z,85
2019-01-02T13:33:11.083Z,80
2019-01-02T13:34:10.851Z,85
2019-01-02T13:35:11.181Z,80
2019-01-02T13:36:10.842Z,80
2019-01-02T13:37:10.544Z,85
2019-01-02T13:38:10.945Z,85
2019-01-02T13:39:10.773Z,85
2019-01-02T13:40:10.808Z,85
2019-01-02T13:41:11.003Z,85
2019-01-02T13:42:11.088Z,85
2019-01-02T13:43:10.754Z,90
2019-01-02T13:44:10.510Z,95
2019-01-02T13:45:10.988Z,95
2019-01-02T13:46:10.984Z,95
2019-01-02T13:47:10.699Z,95
2019-01-02T13:48:10.704Z,95
2019-01-02T13:49:10.689Z,90
2019-01-02T13:50:10.947Z,85
2019-01-02T13:51:11.362Z,85
2019-01-02T13:52:10.393Z,85
2019-01-02T13:53:10.892Z,85
2019-01-02T13:54:10.649Z,85
2019-01-02T13:55:10.384Z,85
2019-01-02T13:56:10.403Z,85
2019-01-02T13:57:14.219Z,85
2019-01-02T13:58:10.632Z,80
2019-01-02T13:59:10.817Z,80
2019-01-02T14:00:10.574Z,80
2019-01-02T14:01:10.826Z,75
2019-01-02T14:02:10.574Z,75
2019-01-02T14:03:10.558Z,75
2019-01-02T14:04:10.535Z,75
2019-01-02T14:05:10.758Z,75
2019-01-02T14:06:10.500Z,75
2019-01-02T14:07:10.855Z,80
2019-01-02T14:08:10.506Z,80
2019-01-02T14:09:10.251Z,80
2019-01-02T14:10:10.543Z,80
2019-01-02T14:11:09.975Z,80
2019-01-02T14:12:10.201Z,80
2019-01-02T14:13:10.325Z,80
2019-01-02T14:14:10.439Z,80
2019-01-02T14:15:10.184Z,80
2019-01-02T14:16:10.443Z,80
2019-01-02T14:17:10.149Z,80
2019-01-02T14:18:10.649Z,75
2019-01-02T14:19:10.675Z,70
2019-01-02T14:20:10.373Z,75
2019-01-02T14:21:10.376Z,75
2019-01-02T14:22:10.655Z,70
2019-01-02T14:23:10.091Z,70
2019-01-02T14:24:10.351Z,65
2019-01-02T14:25:10.609Z,65
2019-01-02T14:26:10.330Z,65
2019-01-02T14:27:10.306Z,65